CheckWX is a tool to help pilots better visualize weather data.  It is not intended as a substitute for an official pre-flight weather briefing.

16:12:01 UTC

KBPG METAR
Big Spring Mc Mahon-Wrinkle Airport
Big Spring, Texas, USA
Current

4 hours ago

KBPG 221235Z AUTO 00000KT 7SM CLR 25/16 A3014 RMK AO2 T02460156
Observed
Jul-22 @ 12:35 UTC
Visibility
7 SM
Flight Rules
VFR
Cloud Levels
  • Clear skies
Temperature
25°C / 77°F
Dewpoint
16°C / 61°F
Humidity
57%
Altimeter
30.14" Hg
Pressure
1020.62 hPa
Previous

4 hours ago

KBPG 221215Z AUTO 14003KT 10SM SCT100 SCT120 24/15 A3013 RMK AO2 T02390150
Observed
Jul-22 @ 12:15 UTC
Wind
  • 140° at 3 KTS
Visibility
10 SM
Flight Rules
VFR
Cloud Levels
  • Scattered at 10,000' AGL
  • Scattered at 12,000' AGL
Temperature
24°C / 75°F
Dewpoint
15°C / 59°F
Humidity
57%
Altimeter
30.13" Hg
Pressure
1020.32 hPa
Previous

4 hours ago

KBPG 221155Z AUTO 03003KT 10SM SCT120 25/14 A3013 RMK AO2 7//// T02450140 10279 20230
Observed
Jul-22 @ 11:55 UTC
Wind
  • 030° at 3 KTS
Visibility
10 SM
Flight Rules
VFR
Cloud Levels
  • Scattered at 12,000' AGL
Temperature
25°C / 77°F
Dewpoint
14°C / 57°F
Humidity
51%
Altimeter
30.13" Hg
Pressure
1020.32 hPa